Time;durP1;ratioP1;P1;durP2;ratioP2;P2;SDS_P1;SDS_P2;PMS_P1;PMS_P2;Temp;Humidity;BMP_temperature;BMP_pressure;BME280_temperature;BME280_humidity;BME280_pressure;Samples;Min_cycle;Max_cycle;Signal;HPM_P1;HPM_P2
2023/08/03 00:00:08;;;;;;;;;;;19.90;99.90;;;;;;5092422;28;19908;-72
2023/08/03 00:02:35;;;;;;;;;;;20.20;99.90;;;;;;5085804;28;24069;-72
2023/08/03 00:05:02;;;;;;;;;;;20.30;99.90;;;;;;5067523;28;20491;-71
2023/08/03 00:07:29;;;;;;;;;;;20.40;99.90;;;;;;5084414;28;24062;-71
2023/08/03 00:09:56;;;;;;;;;;;20.90;99.90;;;;;;5084961;28;24167;-71
2023/08/03 00:12:23;;;;;;;;;;;20.80;99.90;;;;;;5084842;28;19945;-72
2023/08/03 00:14:50;;;;;;;;;;;19.90;99.90;;;;;;5084667;28;20247;-73
2023/08/03 00:17:17;;;;;;;;;;;20.40;99.90;;;;;;5086778;28;19912;-72
2023/08/03 00:19:44;;;;;;;;;;;21.20;99.90;;;;;;5085986;28;25109;-72
2023/08/03 00:22:11;;;;;;;;;;;20.10;99.90;;;;;;5084199;28;24059;-71
2023/08/03 00:24:38;;;;;;;;;;;20.60;99.90;;;;;;5085662;28;25058;-72
2023/08/03 00:27:05;;;;;;;;;;;20.40;99.90;;;;;;5084721;28;19908;-71
2023/08/03 00:29:32;;;;;;;;;;;20.40;99.90;;;;;;5086809;28;19904;-71
2023/08/03 00:32:02;;;;;;;;;;;21.10;99.90;;;;;;5095042;28;20407;-72
2023/08/03 00:34:32;;;;;;;;;;;20.40;99.90;;;;;;5095778;28;25028;-70
2023/08/03 00:36:59;;;;;;;;;;;20.90;99.90;;;;;;5095652;28;24092;-71
2023/08/03 00:39:26;;;;;;;;;;;21.50;99.90;;;;;;5076600;28;25054;-69
2023/08/03 00:41:53;;;;;;;;;;;21.80;99.90;;;;;;5095350;28;19947;-72
2023/08/03 00:44:20;;;;;;;;;;;22.00;99.90;;;;;;5095037;28;24162;-73
2023/08/03 00:46:47;;;;;;;;;;;22.20;99.90;;;;;;5095104;28;19922;-71
2023/08/03 00:49:13;;;;;;;;;;;21.80;99.90;;;;;;5095493;28;19959;-71
2023/08/03 00:51:41;;;;;;;;;;;21.70;99.90;;;;;;5087874;28;19967;-70
2023/08/03 00:54:08;;;;;;;;;;;21.60;99.90;;;;;;5079865;28;25135;-71
2023/08/03 00:56:35;;;;;;;;;;;21.20;99.90;;;;;;5093109;28;20000;-71
2023/08/03 00:59:10;;;;;;;;;;;21.70;99.90;;;;;;5093597;28;24054;-72
2023/08/03 01:01:38;;;;;;;;;;;21.80;99.90;;;;;;5092634;28;19955;-72
2023/08/03 01:04:05;;;;;;;;;;;21.70;99.90;;;;;;5093344;28;25117;-72
2023/08/03 01:06:32;;;;;;;;;;;22.00;99.90;;;;;;5093110;28;20035;-73
2023/08/03 01:09:00;;;;;;;;;;;21.90;99.90;;;;;;5092346;28;25082;-72
2023/08/03 01:11:28;;;;;;;;;;;21.90;99.90;;;;;;5093126;28;25093;-71
2023/08/03 01:13:55;;;;;;;;;;;21.90;99.90;;;;;;5083750;28;20109;-72
2023/08/03 01:16:25;;;;;;;;;;;22.60;99.90;;;;;;5088130;28;25131;-70
2023/08/03 01:18:52;;;;;;;;;;;23.40;99.90;;;;;;5091568;28;19971;-71
2023/08/03 01:21:21;;;;;;;;;;;23.30;99.90;;;;;;5080739;28;19989;-71
2023/08/03 01:23:48;;;;;;;;;;;22.50;99.90;;;;;;5085247;28;19960;-69
2023/08/03 01:26:15;;;;;;;;;;;22.40;99.90;;;;;;5072372;28;20427;-72
2023/08/03 01:28:42;;;;;;;;;;;22.50;99.90;;;;;;5072511;28;25094;-72
2023/08/03 01:31:09;;;;;;;;;;;22.70;99.90;;;;;;5072006;28;19954;-73
2023/08/03 01:33:36;;;;;;;;;;;22.70;99.90;;;;;;5085934;28;20122;-71
2023/08/03 01:36:03;;;;;;;;;;;23.20;99.90;;;;;;5092694;28;20080;-70
2023/08/03 01:38:30;;;;;;;;;;;23.50;99.90;;;;;;5091187;28;20090;-72
2023/08/03 01:40:59;;;;;;;;;;;22.90;99.90;;;;;;5092089;28;19967;-73
2023/08/03 01:43:26;;;;;;;;;;;23.40;99.90;;;;;;5092469;28;20608;-70
2023/08/03 01:46:14;;;;;;;;;;;23.30;99.90;;;;;;5092141;28;20092;-70
2023/08/03 01:48:40;;;;;;;;;;;23.20;99.90;;;;;;5081391;28;20117;-72
2023/08/03 01:51:07;;;;;;;;;;;23.40;99.90;;;;;;5093314;28;20148;-71
2023/08/03 01:53:34;;;;;;;;;;;22.80;99.90;;;;;;5093350;28;20386;-69
2023/08/03 01:56:00;;;;;;;;;;;22.70;99.90;;;;;;5091915;28;19997;-69
2023/08/03 01:58:27;;;;;;;;;;;23.10;99.90;;;;;;5093890;28;20497;-71
2023/08/03 02:00:54;;;;;;;;;;;23.20;99.90;;;;;;5093162;28;20102;-71
2023/08/03 02:03:21;;;;;;;;;;;24.10;99.90;;;;;;5093267;28;20094;-70
2023/08/03 02:05:48;;;;;;;;;;;23.90;99.90;;;;;;5093230;28;20123;-70
2023/08/03 02:08:15;;;;;;;;;;;23.90;99.90;;;;;;5092749;28;20102;-70
2023/08/03 02:10:41;;;;;;;;;;;24.20;99.90;;;;;;5093131;28;20082;-70
2023/08/03 02:13:08;;;;;;;;;;;23.60;99.90;;;;;;5092935;28;19995;-69
2023/08/03 02:15:38;;;;;;;;;;;23.70;99.90;;;;;;5092357;28;19972;-71
2023/08/03 02:18:05;;;;;;;;;;;24.30;99.90;;;;;;5092958;28;20099;-70
2023/08/03 02:20:32;;;;;;;;;;;24.50;99.90;;;;;;5074826;28;20461;-71
2023/08/03 02:22:58;;;;;;;;;;;24.00;99.90;;;;;;5093122;28;20370;-72
2023/08/03 02:25:25;;;;;;;;;;;24.20;99.90;;;;;;5092609;28;20425;-70
2023/08/03 02:27:52;;;;;;;;;;;24.40;99.90;;;;;;5093137;28;19968;-70
2023/08/03 02:30:19;;;;;;;;;;;24.80;99.90;;;;;;5092168;28;20105;-70
2023/08/03 02:32:46;;;;;;;;;;;24.90;99.90;;;;;;5092446;28;20124;-69
2023/08/03 02:35:13;;;;;;;;;;;25.00;99.90;;;;;;5092879;28;20076;-70
2023/08/03 02:37:40;;;;;;;;;;;25.20;99.90;;;;;;5093046;28;19969;-70
2023/08/03 02:40:08;;;;;;;;;;;25.20;99.90;;;;;;5093523;28;19974;-70
2023/08/03 02:42:38;;;;;;;;;;;24.90;99.90;;;;;;5079336;28;20844;-69
2023/08/03 02:45:05;;;;;;;;;;;25.00;99.90;;;;;;5083240;28;20493;-71
2023/08/03 02:47:32;;;;;;;;;;;24.80;99.90;;;;;;5091068;28;20109;-70
2023/08/03 02:49:59;;;;;;;;;;;24.50;99.90;;;;;;5090196;28;20096;-70
2023/08/03 02:52:28;;;;;;;;;;;25.00;99.90;;;;;;5090466;28;20031;-72
2023/08/03 02:54:55;;;;;;;;;;;25.20;99.90;;;;;;5091844;28;20421;-70
2023/08/03 02:57:22;;;;;;;;;;;25.40;99.90;;;;;;5091747;28;19968;-70
2023/08/03 02:59:49;;;;;;;;;;;25.20;99.90;;;;;;5090445;28;20072;-69
2023/08/03 03:02:16;;;;;;;;;;;25.20;99.90;;;;;;5091079;28;19975;-70
2023/08/03 03:04:43;;;;;;;;;;;24.50;99.90;;;;;;5091140;28;19964;-70
2023/08/03 03:07:10;;;;;;;;;;;24.50;99.90;;;;;;5090082;28;20108;-70
2023/08/03 03:09:36;;;;;;;;;;;24.60;99.90;;;;;;5090537;28;20156;-70
2023/08/03 03:12:03;;;;;;;;;;;24.20;99.90;;;;;;5090908;28;20004;-70
2023/08/03 03:14:30;;;;;;;;;;;24.50;99.90;;;;;;5072079;28;20097;-70
2023/08/03 03:16:57;;;;;;;;;;;25.00;99.90;;;;;;5073116;28;19973;-70
2023/08/03 03:19:24;;;;;;;;;;;25.20;98.50;;;;;;5090740;28;20173;-70
2023/08/03 03:21:51;;;;;;;;;;;25.20;96.40;;;;;;5090353;28;20099;-70
2023/08/03 03:24:18;;;;;;;;;;;25.30;96.40;;;;;;5090002;28;20125;-69
2023/08/03 03:26:45;;;;;;;;;;;25.60;96.70;;;;;;5090102;28;20107;-69
2023/08/03 03:29:12;;;;;;;;;;;25.60;94.00;;;;;;5089525;28;19991;-69
2023/08/03 03:31:39;;;;;;;;;;;25.40;94.50;;;;;;5090429;28;20123;-69
2023/08/03 03:34:06;;;;;;;;;;;25.70;93.70;;;;;;5090454;28;19972;-69
2023/08/03 03:36:33;;;;;;;;;;;25.00;94.40;;;;;;5089284;28;19988;-70
2023/08/03 03:39:00;;;;;;;;;;;25.20;96.00;;;;;;5089447;28;20068;-71
2023/08/03 03:41:27;;;;;;;;;;;25.30;93.60;;;;;;5080651;28;20111;-71
2023/08/03 03:43:53;;;;;;;;;;;25.80;92.80;;;;;;5089567;28;20113;-69
2023/08/03 03:46:20;;;;;;;;;;;26.10;91.50;;;;;;5090187;28;20146;-71
2023/08/03 03:48:47;;;;;;;;;;;25.70;89.20;;;;;;5090261;28;20084;-71
2023/08/03 03:51:17;;;;;;;;;;;25.50;90.00;;;;;;5081690;28;20097;-69
2023/08/03 03:53:44;;;;;;;;;;;25.30;90.20;;;;;;5089268;28;20141;-70
2023/08/03 03:56:11;;;;;;;;;;;25.30;90.40;;;;;;5090458;28;20704;-71
2023/08/03 03:58:38;;;;;;;;;;;24.90;93.40;;;;;;5089916;28;20451;-70
2023/08/03 04:01:05;;;;;;;;;;;25.50;90.60;;;;;;5090360;28;20134;-69
2023/08/03 04:03:31;;;;;;;;;;;24.90;90.80;;;;;;5089917;28;20126;-69
2023/08/03 04:05:58;;;;;;;;;;;24.90;93.10;;;;;;5089423;28;20104;-70
2023/08/03 04:08:25;;;;;;;;;;;25.00;92.60;;;;;;5090296;28;20111;-70
2023/08/03 04:10:52;;;;;;;;;;;24.80;91.50;;;;;;5089440;28;20126;-70
2023/08/03 04:13:19;;;;;;;;;;;25.10;91.50;;;;;;5089603;28;20145;-70
2023/08/03 04:15:46;;;;;;;;;;;24.70;92.10;;;;;;5089931;28;20225;-71
2023/08/03 04:18:13;;;;;;;;;;;24.80;90.90;;;;;;5090630;28;20137;-71
2023/08/03 04:20:40;;;;;;;;;;;25.10;90.10;;;;;;5092802;28;20025;-71
2023/08/03 04:23:06;;;;;;;;;;;25.40;86.50;;;;;;5088765;28;20102;-70
2023/08/03 04:25:33;;;;;;;;;;;25.20;87.20;;;;;;5087789;28;20444;-71
2023/08/03 04:28:00;;;;;;;;;;;25.10;85.40;;;;;;5092556;28;20478;-72
2023/08/03 04:30:27;;;;;;;;;;;24.90;90.20;;;;;;5093247;28;20347;-71
2023/08/03 04:32:54;;;;;;;;;;;24.80;87.30;;;;;;5080891;28;20134;-70
2023/08/03 04:35:21;;;;;;;;;;;25.30;86.60;;;;;;5094627;28;20461;-69
2023/08/03 04:37:48;;;;;;;;;;;25.60;82.40;;;;;;5093224;28;20100;-69
2023/08/03 04:40:15;;;;;;;;;;;25.40;80.20;;;;;;5094637;28;20149;-70
2023/08/03 04:42:42;;;;;;;;;;;25.40;81.30;;;;;;5094485;28;20013;-70
2023/08/03 04:45:09;;;;;;;;;;;25.10;84.20;;;;;;5094337;28;20094;-69
2023/08/03 04:47:36;;;;;;;;;;;25.00;87.60;;;;;;5094678;28;20251;-70
2023/08/03 04:50:02;;;;;;;;;;;25.30;89.20;;;;;;5095187;28;20100;-70
2023/08/03 04:52:29;;;;;;;;;;;25.40;86.80;;;;;;5094076;28;20010;-70
2023/08/03 04:54:56;;;;;;;;;;;25.20;87.90;;;;;;5093907;28;20499;-69
2023/08/03 04:57:23;;;;;;;;;;;25.10;87.50;;;;;;5094811;28;20704;-70
2023/08/03 04:59:50;;;;;;;;;;;24.80;88.80;;;;;;5094134;28;20457;-69
2023/08/03 05:02:17;;;;;;;;;;;24.70;88.90;;;;;;5093745;28;20180;-70
2023/08/03 05:04:44;;;;;;;;;;;24.70;90.00;;;;;;5094415;28;19994;-70
2023/08/03 05:07:11;;;;;;;;;;;24.80;89.50;;;;;;5093021;28;20114;-69
2023/08/03 05:09:37;;;;;;;;;;;24.90;87.80;;;;;;5075841;28;20149;-71
2023/08/03 05:12:04;;;;;;;;;;;24.80;88.40;;;;;;5075375;28;20138;-70
2023/08/03 05:14:31;;;;;;;;;;;24.70;89.30;;;;;;5094608;28;20085;-70
2023/08/03 05:16:58;;;;;;;;;;;24.90;88.00;;;;;;5093334;28;20011;-70
2023/08/03 05:19:25;;;;;;;;;;;24.90;86.40;;;;;;5093619;28;19994;-70
2023/08/03 05:21:52;;;;;;;;;;;24.90;87.80;;;;;;5093793;28;20535;-70
2023/08/03 05:24:19;;;;;;;;;;;24.90;88.90;;;;;;5093282;28;20151;-69
2023/08/03 05:26:46;;;;;;;;;;;24.90;89.10;;;;;;5090940;28;20496;-70
2023/08/03 05:29:13;;;;;;;;;;;24.60;91.10;;;;;;5094000;28;20336;-72
2023/08/03 05:31:40;;;;;;;;;;;24.60;91.00;;;;;;5062172;28;20098;-69
2023/08/03 05:34:07;;;;;;;;;;;24.30;92.50;;;;;;5086895;28;20566;-70
2023/08/03 05:36:33;;;;;;;;;;;24.20;93.50;;;;;;5084715;28;20114;-69
2023/08/03 05:39:00;;;;;;;;;;;24.30;91.80;;;;;;5053510;28;20324;-69
2023/08/03 05:41:29;;;;;;;;;;;24.20;91.40;;;;;;5071890;28;20600;-70
2023/08/03 05:43:56;;;;;;;;;;;24.20;91.40;;;;;;5071812;28;20088;-70
2023/08/03 05:46:23;;;;;;;;;;;24.00;92.70;;;;;;5071634;28;20570;-71
2023/08/03 05:48:52;;;;;;;;;;;23.70;93.10;;;;;;5053736;28;25062;-68
2023/08/03 05:51:23;;;;;;;;;;;23.50;94.00;;;;;;5056288;28;19965;-69
2023/08/03 05:53:50;;;;;;;;;;;23.40;95.10;;;;;;5088439;28;20140;-70
2023/08/03 05:56:19;;;;;;;;;;;23.20;96.20;;;;;;5092216;28;19973;-70
2023/08/03 05:58:46;;;;;;;;;;;23.20;96.90;;;;;;5091471;28;20084;-70
2023/08/03 06:01:13;;;;;;;;;;;23.10;98.20;;;;;;5091535;28;20092;-71
2023/08/03 06:03:43;;;;;;;;;;;23.10;99.20;;;;;;5091842;28;19995;-71
2023/08/03 06:06:11;;;;;;;;;;;23.20;98.80;;;;;;5091896;28;20113;-71
2023/08/03 06:08:41;;;;;;;;;;;22.90;99.90;;;;;;5090975;28;20165;-71
2023/08/03 06:11:08;;;;;;;;;;;22.70;99.90;;;;;;5071667;28;20194;-70
2023/08/03 06:13:35;;;;;;;;;;;22.50;99.90;;;;;;5074039;28;20114;-70
2023/08/03 06:16:03;;;;;;;;;;;22.60;99.90;;;;;;5061090;28;20108;-69
2023/08/03 06:18:32;;;;;;;;;;;22.30;99.90;;;;;;5088366;28;20073;-69
2023/08/03 06:20:59;;;;;;;;;;;22.10;99.90;;;;;;5092245;28;20072;-68
2023/08/03 06:23:26;;;;;;;;;;;22.10;99.90;;;;;;5086280;28;20004;-73
2023/08/03 06:25:55;;;;;;;;;;;22.10;99.90;;;;;;5080890;28;20300;-68
2023/08/03 06:28:23;;;;;;;;;;;22.10;99.90;;;;;;5091750;28;19977;-69
2023/08/03 06:30:51;;;;;;;;;;;22.00;99.90;;;;;;5091226;28;19957;-70
2023/08/03 06:33:18;;;;;;;;;;;21.90;99.90;;;;;;5091460;28;20132;-71
2023/08/03 06:35:46;;;;;;;;;;;21.70;99.90;;;;;;5091513;28;20084;-71
2023/08/03 06:38:15;;;;;;;;;;;21.60;99.90;;;;;;5091576;28;19904;-71
2023/08/03 06:40:42;;;;;;;;;;;21.60;99.90;;;;;;5090679;28;20098;-71
2023/08/03 06:43:10;;;;;;;;;;;21.50;99.90;;;;;;5073473;28;20324;-70
2023/08/03 06:45:37;;;;;;;;;;;21.50;99.90;;;;;;5091761;28;20525;-70
2023/08/03 06:48:04;;;;;;;;;;;21.30;99.90;;;;;;5091791;28;20193;-70
2023/08/03 06:50:32;;;;;;;;;;;21.30;99.90;;;;;;5091129;28;20161;-70
2023/08/03 06:52:59;;;;;;;;;;;21.20;99.90;;;;;;5090491;28;20131;-69
2023/08/03 06:55:26;;;;;;;;;;;21.10;99.90;;;;;;5091579;28;20024;-70
2023/08/03 06:57:53;;;;;;;;;;;21.20;99.90;;;;;;5091409;28;20545;-69
2023/08/03 07:00:20;;;;;;;;;;;21.10;99.90;;;;;;5090951;28;20313;-70
2023/08/03 07:02:48;;;;;;;;;;;21.00;99.90;;;;;;5091823;28;24140;-70
2023/08/03 07:05:15;;;;;;;;;;;20.90;99.90;;;;;;5074521;28;20073;-70
2023/08/03 07:07:42;;;;;;;;;;;20.80;99.90;;;;;;5093068;28;20594;-70
2023/08/03 07:10:09;;;;;;;;;;;20.50;99.90;;;;;;5092121;28;20087;-70
2023/08/03 07:12:37;;;;;;;;;;;20.30;99.90;;;;;;5093151;28;19984;-70
2023/08/03 07:15:04;;;;;;;;;;;20.20;99.90;;;;;;5092897;28;20044;-70
2023/08/03 07:17:32;;;;;;;;;;;20.00;99.90;;;;;;5092295;28;19985;-71
2023/08/03 07:19:59;;;;;;;;;;;19.90;99.90;;;;;;5092720;28;20041;-70
2023/08/03 07:22:26;;;;;;;;;;;19.90;99.90;;;;;;5090985;28;20106;-69
2023/08/03 07:24:53;;;;;;;;;;;19.80;99.90;;;;;;5088674;28;19953;-69
2023/08/03 07:27:19;;;;;;;;;;;19.70;99.90;;;;;;5074058;28;20037;-69
2023/08/03 07:29:46;;;;;;;;;;;19.60;99.90;;;;;;5092018;28;19961;-69
2023/08/03 07:32:13;;;;;;;;;;;19.50;99.90;;;;;;5080405;28;20033;-70
2023/08/03 07:34:40;;;;;;;;;;;19.40;99.90;;;;;;5074599;28;19910;-70
2023/08/03 07:37:07;;;;;;;;;;;19.40;99.90;;;;;;5074270;28;19957;-70
2023/08/03 07:39:34;;;;;;;;;;;19.20;99.90;;;;;;5092242;28;20057;-70
2023/08/03 07:42:01;;;;;;;;;;;19.10;99.90;;;;;;5092170;28;24055;-70
2023/08/03 07:44:28;;;;;;;;;;;18.90;99.90;;;;;;5089723;28;24074;-70
2023/08/03 07:46:55;;;;;;;;;;;18.60;99.90;;;;;;5065411;28;24106;-70
2023/08/03 07:49:22;;;;;;;;;;;18.40;99.90;;;;;;5066571;28;20396;-69
2023/08/03 07:51:51;;;;;;;;;;;18.20;99.90;;;;;;5070212;28;24148;-71
2023/08/03 08:09:19;;;;;;;;;;;17.40;99.90;;;;;;5006378;28;19933;-72
2023/08/03 08:11:46;;;;;;;;;;;17.30;99.90;;;;;;5013983;28;24157;-71
2023/08/03 08:14:13;;;;;;;;;;;17.30;99.90;;;;;;5014466;28;24075;-72
2023/08/03 08:16:40;;;;;;;;;;;17.20;99.90;;;;;;5013702;28;24057;-71
2023/08/03 08:19:07;;;;;;;;;;;17.10;99.90;;;;;;5014394;28;19996;-71
2023/08/03 08:21:33;;;;;;;;;;;17.00;99.90;;;;;;5014458;28;24070;-71
2023/08/03 08:24:00;;;;;;;;;;;16.90;99.90;;;;;;5013751;28;20054;-72
2023/08/03 08:26:28;;;;;;;;;;;16.80;99.90;;;;;;5014324;28;19905;-72
2023/08/03 08:28:58;;;;;;;;;;;16.70;99.90;;;;;;5013923;28;25098;-72
2023/08/03 08:31:24;;;;;;;;;;;16.60;99.90;;;;;;5013666;28;19912;-71
2023/08/03 08:33:51;;;;;;;;;;;16.50;99.90;;;;;;5014065;28;25150;-71
2023/08/03 08:36:18;;;;;;;;;;;16.50;99.90;;;;;;5013497;28;20059;-71
2023/08/03 08:38:45;;;;;;;;;;;16.40;99.90;;;;;;5013656;28;24085;-71
2023/08/03 08:41:12;;;;;;;;;;;16.30;99.90;;;;;;5014049;28;24056;-71
2023/08/03 08:43:41;;;;;;;;;;;16.30;99.90;;;;;;5014005;28;19910;-71
2023/08/03 08:46:07;;;;;;;;;;;16.20;99.90;;;;;;5013850;28;20334;-71
2023/08/03 08:48:35;;;;;;;;;;;16.10;99.90;;;;;;5013450;28;25066;-71
2023/08/03 08:51:04;;;;;;;;;;;16.10;99.90;;;;;;5013364;28;19906;-71
2023/08/03 08:53:31;;;;;;;;;;;16.10;99.90;;;;;;5013289;28;20255;-71
2023/08/03 08:56:00;;;;;;;;;;;16.10;99.90;;;;;;5013842;28;20240;-71
2023/08/03 08:58:27;;;;;;;;;;;15.90;99.90;;;;;;5013904;28;19909;-71
2023/08/03 09:01:02;;;;;;;;;;;15.90;99.90;;;;;;4995236;28;19910;-71
2023/08/03 09:03:44;;;;;;;;;;;15.80;99.90;;;;;;5013136;28;24060;-72
2023/08/03 09:06:11;;;;;;;;;;;15.70;99.90;;;;;;5013768;28;24078;-72
2023/08/03 09:08:52;;;;;;;;;;;15.60;99.90;;;;;;4995103;28;25100;-71
2023/08/03 09:11:18;;;;;;;;;;;15.50;99.90;;;;;;5013213;28;19909;-71
2023/08/03 09:13:46;;;;;;;;;;;15.50;99.90;;;;;;4995355;28;19967;-71
2023/08/03 09:16:26;;;;;;;;;;;15.40;99.90;;;;;;4994815;28;20441;-71
2023/08/03 09:18:53;;;;;;;;;;;15.30;99.90;;;;;;5014742;28;24074;-71
2023/08/03 09:21:20;;;;;;;;;;;15.20;99.90;;;;;;5014492;28;19905;-70
2023/08/03 09:23:47;;;;;;;;;;;15.10;99.90;;;;;;5014897;28;20266;-71
2023/08/03 09:26:20;;;;;;;;;;;15.10;99.90;;;;;;5014556;28;24167;-71
2023/08/03 09:28:47;;;;;;;;;;;15.00;99.90;;;;;;5014652;28;24059;-71
2023/08/03 09:31:20;;;;;;;;;;;14.90;99.90;;;;;;5014824;28;19909;-71
2023/08/03 09:33:54;;;;;;;;;;;14.90;99.90;;;;;;4996923;28;25066;-70
2023/08/03 09:36:21;;;;;;;;;;;14.80;99.90;;;;;;5014544;28;24077;-70
2023/08/03 09:38:48;;;;;;;;;;;14.80;99.90;;;;;;5014510;28;19910;-71
2023/08/03 09:41:15;;;;;;;;;;;14.80;99.90;;;;;;4996450;28;20326;-71
2023/08/03 09:43:42;;;;;;;;;;;14.80;99.90;;;;;;5014499;28;19905;-71
2023/08/03 09:46:14;;;;;;;;;;;14.70;99.90;;;;;;5014536;28;19905;-71
2023/08/03 09:48:41;;;;;;;;;;;14.60;99.90;;;;;;5014528;28;24080;-71
2023/08/03 09:51:08;;;;;;;;;;;14.60;99.90;;;;;;4996526;28;20301;-71
2023/08/03 09:53:38;;;;;;;;;;;14.50;99.90;;;;;;5015527;28;20339;-70
2023/08/03 09:56:06;;;;;;;;;;;14.50;99.90;;;;;;5017218;28;24059;-71
2023/08/03 09:58:48;;;;;;;;;;;14.40;99.90;;;;;;5014029;28;19909;-71
2023/08/03 10:01:16;;;;;;;;;;;14.40;99.90;;;;;;5001667;28;24084;-70
2023/08/03 10:03:44;;;;;;;;;;;14.30;99.90;;;;;;5014430;28;24175;-70
2023/08/03 10:06:17;;;;;;;;;;;14.30;99.90;;;;;;5013750;28;19912;-70
2023/08/03 10:08:47;;;;;;;;;;;14.20;99.90;;;;;;5013493;28;20461;-70
2023/08/03 10:11:14;;;;;;;;;;;14.20;99.90;;;;;;5013786;28;19921;-70
2023/08/03 10:13:42;;;;;;;;;;;14.10;99.90;;;;;;5013571;28;25061;-70
2023/08/03 10:16:09;;;;;;;;;;;14.10;99.90;;;;;;5012927;28;20329;-70
2023/08/03 10:18:37;;;;;;;;;;;14.00;99.90;;;;;;5013877;28;20365;-70
2023/08/03 10:21:05;;;;;;;;;;;14.00;99.90;;;;;;5013503;28;20405;-70
2023/08/03 10:23:31;;;;;;;;;;;14.00;99.90;;;;;;5013724;28;19911;-70
2023/08/03 10:25:59;;;;;;;;;;;14.00;99.90;;;;;;4995936;28;19905;-70
2023/08/03 10:28:46;;;;;;;;;;;13.90;99.90;;;;;;5013425;28;19905;-70
2023/08/03 10:31:19;;;;;;;;;;;13.80;99.90;;;;;;5013150;28;20358;-70
2023/08/03 10:33:52;;;;;;;;;;;13.80;99.90;;;;;;4995840;28;20016;-72
2023/08/03 10:36:30;;;;;;;;;;;13.70;99.90;;;;;;5014033;28;19983;-70
2023/08/03 10:39:05;;;;;;;;;;;13.60;99.90;;;;;;5013897;28;24074;-70
2023/08/03 10:42:01;;;;;;;;;;;13.60;99.90;;;;;;5013272;28;19920;-70
2023/08/03 10:44:28;;;;;;;;;;;13.40;99.90;;;;;;5000694;28;19992;-70
2023/08/03 10:46:56;;;;;;;;;;;13.40;99.90;;;;;;4995781;28;20000;-70
2023/08/03 10:49:23;;;;;;;;;;;13.30;99.90;;;;;;5013244;28;19953;-70
2023/08/03 10:52:17;;;;;;;;;;;13.30;99.90;;;;;;5012846;28;19913;-70
2023/08/03 10:54:45;;;;;;;;;;;13.30;99.90;;;;;;5013450;28;19917;-70
2023/08/03 10:57:16;;;;;;;;;;;13.20;99.90;;;;;;5013253;28;20251;-70
2023/08/03 10:59:44;;;;;;;;;;;13.20;99.90;;;;;;5013518;28;19905;-70
2023/08/03 11:02:18;;;;;;;;;;;13.10;99.90;;;;;;5012953;28;24073;-70
2023/08/03 11:04:46;;;;;;;;;;;13.10;99.90;;;;;;5012566;28;20355;-70
2023/08/03 11:07:15;;;;;;;;;;;13.00;99.90;;;;;;5013405;28;19948;-70
2023/08/03 11:09:42;;;;;;;;;;;12.90;99.90;;;;;;5012793;28;24093;-70
2023/08/03 11:12:09;;;;;;;;;;;12.90;99.90;;;;;;5012896;28;19921;-70
2023/08/03 11:14:37;;;;;;;;;;;12.80;99.90;;;;;;5013019;28;20374;-70
2023/08/03 11:17:04;;;;;;;;;;;12.80;99.90;;;;;;5013127;28;19921;-70
2023/08/03 11:19:33;;;;;;;;;;;12.80;99.90;;;;;;5012981;28;19905;-70
2023/08/03 11:22:01;;;;;;;;;;;12.70;99.90;;;;;;5009813;28;19916;-70
2023/08/03 11:24:31;;;;;;;;;;;12.60;99.90;;;;;;5012655;28;19905;-70
2023/08/03 11:27:01;;;;;;;;;;;12.60;99.90;;;;;;5013267;28;24057;-70
2023/08/03 11:29:28;;;;;;;;;;;12.60;99.90;;;;;;5016574;28;19959;-70
2023/08/03 11:31:55;;;;;;;;;;;12.60;99.90;;;;;;5016529;28;19955;-70
2023/08/03 11:34:24;;;;;;;;;;;12.60;99.90;;;;;;5016510;28;19988;-70
2023/08/03 11:36:52;;;;;;;;;;;12.50;99.90;;;;;;5016459;28;19910;-70
2023/08/03 11:39:19;;;;;;;;;;;12.60;99.90;;;;;;5015979;28;19906;-70
2023/08/03 11:41:49;;;;;;;;;;;12.60;99.90;;;;;;5016579;28;24066;-70
2023/08/03 11:44:20;;;;;;;;;;;12.50;99.90;;;;;;5016374;28;24133;-70
2023/08/03 11:46:49;;;;;;;;;;;12.40;99.90;;;;;;5016535;28;19905;-70
2023/08/03 11:49:17;;;;;;;;;;;12.30;99.90;;;;;;4998420;28;19909;-70
2023/08/03 11:51:47;;;;;;;;;;;12.20;99.90;;;;;;5016211;28;24135;-70
2023/08/03 11:54:22;;;;;;;;;;;12.20;99.90;;;;;;5016143;28;19917;-71
2023/08/03 11:56:49;;;;;;;;;;;12.10;99.90;;;;;;5016420;28;20343;-70
2023/08/03 11:59:16;;;;;;;;;;;12.00;99.90;;;;;;4998310;28;25158;-70
2023/08/03 12:01:44;;;;;;;;;;;12.00;99.90;;;;;;5016202;28;24096;-70
2023/08/03 12:04:11;;;;;;;;;;;12.00;99.90;;;;;;5016363;28;19996;-70
2023/08/03 12:06:44;;;;;;;;;;;12.00;99.90;;;;;;5015660;28;24151;-70
2023/08/03 12:09:16;;;;;;;;;;;12.00;99.90;;;;;;5015785;28;24090;-70
2023/08/03 12:11:43;;;;;;;;;;;12.00;99.90;;;;;;5015477;28;24081;-70
2023/08/03 12:14:10;;;;;;;;;;;11.90;99.90;;;;;;5014377;28;19917;-71
2023/08/03 12:16:38;;;;;;;;;;;11.90;99.90;;;;;;5015064;28;20247;-71
2023/08/03 12:19:08;;;;;;;;;;;11.80;99.90;;;;;;5015535;28;20170;-71
2023/08/03 12:21:35;;;;;;;;;;;11.80;99.90;;;;;;5015310;28;19948;-71
2023/08/03 12:24:03;;;;;;;;;;;11.80;99.90;;;;;;5015068;28;19916;-71
2023/08/03 12:26:29;;;;;;;;;;;11.80;99.90;;;;;;5015440;28;19909;-71
2023/08/03 12:28:57;;;;;;;;;;;11.70;99.90;;;;;;4998055;28;24070;-70
2023/08/03 12:31:24;;;;;;;;;;;11.70;99.90;;;;;;5015264;28;19909;-70
2023/08/03 12:33:51;;;;;;;;;;;11.60;99.90;;;;;;5015542;28;19913;-70
2023/08/03 12:36:18;;;;;;;;;;;11.50;99.90;;;;;;5014516;28;19917;-70
2023/08/03 12:38:45;;;;;;;;;;;11.50;99.90;;;;;;5014531;28;19917;-70
2023/08/03 12:41:13;;;;;;;;;;;11.40;99.90;;;;;;5014930;28;19915;-71
2023/08/03 12:43:40;;;;;;;;;;;11.40;99.90;;;;;;5015419;28;20359;-71
2023/08/03 12:46:07;;;;;;;;;;;11.30;99.90;;;;;;5015090;28;19909;-71
2023/08/03 12:48:34;;;;;;;;;;;11.30;99.90;;;;;;5014818;28;19915;-71
2023/08/03 12:51:01;;;;;;;;;;;11.20;99.90;;;;;;5014964;28;19997;-71
2023/08/03 12:53:28;;;;;;;;;;;11.30;99.90;;;;;;5014570;28;24388;-71
2023/08/03 12:55:55;;;;;;;;;;;11.30;99.90;;;;;;4995593;28;19905;-71
2023/08/03 12:58:22;;;;;;;;;;;11.30;99.90;;;;;;5000410;28;19932;-70
2023/08/03 13:00:49;;;;;;;;;;;11.20;99.90;;;;;;5014261;28;19933;-70
2023/08/03 13:03:16;;;;;;;;;;;11.20;99.90;;;;;;5000604;28;19965;-71
2023/08/03 13:05:43;;;;;;;;;;;11.20;99.90;;;;;;5015142;28;19905;-71
2023/08/03 13:08:11;;;;;;;;;;;11.20;99.90;;;;;;5014545;28;24086;-71
2023/08/03 13:10:38;;;;;;;;;;;11.10;99.90;;;;;;5014701;28;19909;-71
2023/08/03 13:13:04;;;;;;;;;;;11.10;99.90;;;;;;5014419;28;19921;-70
2023/08/03 13:15:31;;;;;;;;;;;11.00;99.90;;;;;;5014446;28;19909;-70
2023/08/03 13:17:58;;;;;;;;;;;11.00;99.90;;;;;;5014856;28;24082;-70
2023/08/03 13:20:25;;;;;;;;;;;11.00;99.90;;;;;;5014669;28;20354;-70
2023/08/03 13:22:52;;;;;;;;;;;11.00;99.90;;;;;;5014383;28;19916;-71
2023/08/03 13:25:19;;;;;;;;;;;11.00;99.90;;;;;;5014452;28;20395;-71
2023/08/03 13:27:46;;;;;;;;;;;11.00;99.90;;;;;;5014297;28;24073;-71
2023/08/03 13:30:14;;;;;;;;;;;10.90;99.90;;;;;;4997522;28;20012;-70
2023/08/03 13:32:44;;;;;;;;;;;10.90;99.90;;;;;;5013258;28;24112;-70
2023/08/03 13:35:11;;;;;;;;;;;10.90;99.90;;;;;;4996597;28;19909;-70
2023/08/03 13:37:37;;;;;;;;;;;10.90;99.90;;;;;;5014448;28;19948;-71
2023/08/03 13:40:05;;;;;;;;;;;10.80;99.90;;;;;;4981931;28;20337;-70
2023/08/03 13:42:31;;;;;;;;;;;10.80;99.90;;;;;;5013736;28;20337;-71
2023/08/03 13:44:58;;;;;;;;;;;10.80;99.90;;;;;;5014181;28;19920;-70
2023/08/03 13:47:25;;;;;;;;;;;10.70;99.90;;;;;;5013120;28;24057;-70
2023/08/03 13:49:53;;;;;;;;;;;10.70;99.90;;;;;;5013570;28;19909;-70
2023/08/03 13:55:23;;;;;;;;;;;10.60;99.90;;;;;;4993755;28;19960;-71
2023/08/03 13:57:50;;;;;;;;;;;10.50;99.90;;;;;;4996267;28;20007;-71
2023/08/03 14:00:17;;;;;;;;;;;10.60;99.90;;;;;;5013603;28;19957;-71
2023/08/03 14:02:44;;;;;;;;;;;10.50;99.90;;;;;;5013479;28;19924;-71
2023/08/03 14:05:11;;;;;;;;;;;10.50;99.90;;;;;;5013920;28;19905;-71
2023/08/03 14:07:38;;;;;;;;;;;10.40;99.90;;;;;;5013540;28;19909;-70
2023/08/03 14:10:07;;;;;;;;;;;10.40;99.90;;;;;;4993996;28;24086;-70
2023/08/03 14:12:35;;;;;;;;;;;10.40;99.90;;;;;;4994543;28;20062;-70
2023/08/03 14:15:03;;;;;;;;;;;10.30;99.90;;;;;;5009495;28;19956;-70
2023/08/03 14:17:30;;;;;;;;;;;10.30;99.90;;;;;;5012916;28;19915;-70
2023/08/03 14:20:00;;;;;;;;;;;10.30;99.90;;;;;;5013861;28;24079;-70
2023/08/03 14:22:27;;;;;;;;;;;10.30;99.90;;;;;;5013594;28;19985;-70
2023/08/03 14:24:54;;;;;;;;;;;10.30;99.90;;;;;;4995939;28;20339;-70
2023/08/03 14:27:21;;;;;;;;;;;10.30;99.90;;;;;;5014092;28;19910;-70
2023/08/03 14:29:48;;;;;;;;;;;10.20;99.90;;;;;;5014176;28;19932;-70
2023/08/03 14:32:15;;;;;;;;;;;10.20;99.90;;;;;;5014162;28;19906;-70
2023/08/03 14:34:42;;;;;;;;;;;10.10;99.90;;;;;;5014205;28;19905;-70
2023/08/03 14:37:09;;;;;;;;;;;10.20;99.90;;;;;;5013546;28;19963;-70